sensor_id;sensor_type;location;lat;lon;timestamp;pressure;altitude;pressure_sealevel;temperature;humidity
43161;BME280;40968;52.342;5.528;2022-11-23T00:01:25;99485.69;;;7.29;85.67
43161;BME280;40968;52.342;5.528;2022-11-23T00:03:53;99412.91;;;6.85;85.59
43161;BME280;40968;52.342;5.528;2022-11-23T00:06:21;99470.53;;;7.29;85.64
43161;BME280;40968;52.342;5.528;2022-11-23T00:08:49;99444.78;;;7.07;85.57
43161;BME280;40968;52.342;5.528;2022-11-23T00:11:16;99512.97;;;7.54;85.54
43161;BME280;40968;52.342;5.528;2022-11-23T00:13:45;99514.78;;;7.53;85.60
43161;BME280;40968;52.342;5.528;2022-11-23T00:16:13;99507.50;;;7.55;85.78
43161;BME280;40968;52.342;5.528;2022-11-23T00:18:40;99470.53;;;7.29;85.50
43161;BME280;40968;52.342;5.528;2022-11-23T00:21:07;99466.91;;;7.30;85.62
43161;BME280;40968;52.342;5.528;2022-11-23T00:23:34;99486.28;;;7.33;85.80
43161;BME280;40968;52.342;5.528;2022-11-23T00:26:01;99416.88;;;6.90;85.57
43161;BME280;40968;52.342;5.528;2022-11-23T00:28:28;99344.16;;;6.46;85.53
43161;BME280;40968;52.342;5.528;2022-11-23T00:30:56;99510.59;;;7.51;85.59
43161;BME280;40968;52.342;5.528;2022-11-23T00:33:23;99469.09;;;7.25;85.65
43161;BME280;40968;52.342;5.528;2022-11-23T00:35:58;99530.28;;;7.59;85.62
43161;BME280;40968;52.342;5.528;2022-11-23T00:38:24;99495.44;;;7.40;85.80
43161;BME280;40968;52.342;5.528;2022-11-23T00:40:56;99493.31;;;7.34;85.59
43161;BME280;40968;52.342;5.528;2022-11-23T00:43:23;99531.00;;;7.61;85.77
43161;BME280;40968;52.342;5.528;2022-11-23T00:45:49;99243.50;;;5.85;85.47
43161;BME280;40968;52.342;5.528;2022-11-23T00:48:17;99537.03;;;7.63;85.81
43161;BME280;40968;52.342;5.528;2022-11-23T00:50:44;99465.38;;;7.17;85.73
43161;BME280;40968;52.342;5.528;2022-11-23T00:53:10;99545.78;;;7.66;85.58
43161;BME280;40968;52.342;5.528;2022-11-23T00:55:38;99518.69;;;7.49;85.60
43161;BME280;40968;52.342;5.528;2022-11-23T00:58:05;99542.28;;;7.65;85.56
43161;BME280;40968;52.342;5.528;2022-11-23T01:00:31;99556.19;;;7.69;85.63
43161;BME280;40968;52.342;5.528;2022-11-23T01:02:58;99465.38;;;7.17;85.54
43161;BME280;40968;52.342;5.528;2022-11-23T01:05:26;99548.91;;;7.71;85.56
43161;BME280;40968;52.342;5.528;2022-11-23T01:07:52;99556.91;;;7.71;85.47
43161;BME280;40968;52.342;5.528;2022-11-23T01:10:19;99555.94;;;7.72;85.43
43161;BME280;40968;52.342;5.528;2022-11-23T01:12:46;99470.31;;;7.21;85.53
43161;BME280;40968;52.342;5.528;2022-11-23T01:15:12;99479.50;;;7.28;85.20
43161;BME280;40968;52.342;5.528;2022-11-23T01:17:39;99252.91;;;5.89;84.90
43161;BME280;40968;52.342;5.528;2022-11-23T01:20:07;99563.81;;;7.73;84.91
43161;BME280;40968;52.342;5.528;2022-11-23T01:22:35;99562.00;;;7.74;84.94
43161;BME280;40968;52.342;5.528;2022-11-23T01:25:03;99571.69;;;7.75;84.75
43161;BME280;40968;52.342;5.528;2022-11-23T01:27:29;99498.66;;;7.34;84.85
43161;BME280;40968;52.342;5.528;2022-11-23T01:29:56;99529.59;;;7.46;84.50
43161;BME280;40968;52.342;5.528;2022-11-23T01:32:22;99524.28;;;7.46;84.72
43161;BME280;40968;52.342;5.528;2022-11-23T01:34:49;99551.88;;;7.56;84.78
43161;BME280;40968;52.342;5.528;2022-11-23T01:37:16;99584.88;;;7.76;84.76
43161;BME280;40968;52.342;5.528;2022-11-23T01:39:44;99451.75;;;6.99;84.57
43161;BME280;40968;52.342;5.528;2022-11-23T01:42:10;99591.78;;;7.79;84.60
43161;BME280;40968;52.342;5.528;2022-11-23T01:44:37;99558.03;;;7.57;84.74
43161;BME280;40968;52.342;5.528;2022-11-23T01:47:05;99572.72;;;7.62;84.55
43161;BME280;40968;52.342;5.528;2022-11-23T01:49:34;99553.56;;;7.57;84.70
43161;BME280;40968;52.342;5.528;2022-11-23T01:52:05;99596.91;;;7.82;84.75
43161;BME280;40968;52.342;5.528;2022-11-23T01:54:36;99594.09;;;7.84;84.41
43161;BME280;40968;52.342;5.528;2022-11-23T01:57:06;99539.16;;;7.49;84.43
43161;BME280;40968;52.342;5.528;2022-11-23T01:59:35;99548.25;;;7.57;84.55
43161;BME280;40968;52.342;5.528;2022-11-23T02:02:02;99574.72;;;7.70;84.32
43161;BME280;40968;52.342;5.528;2022-11-23T02:04:32;99594.94;;;7.84;84.30
43161;BME280;40968;52.342;5.528;2022-11-23T02:07:01;99599.44;;;7.84;84.10
43161;BME280;40968;52.342;5.528;2022-11-23T02:09:30;99567.38;;;7.62;84.25
43161;BME280;40968;52.342;5.528;2022-11-23T02:11:57;99560.00;;;7.55;84.22
43161;BME280;40968;52.342;5.528;2022-11-23T02:14:25;99603.19;;;7.81;84.41
43161;BME280;40968;52.342;5.528;2022-11-23T02:16:52;99604.63;;;7.85;84.32
43161;BME280;40968;52.342;5.528;2022-11-23T02:19:30;99520.59;;;7.26;84.17
43161;BME280;40968;52.342;5.528;2022-11-23T02:21:59;99611.78;;;7.85;84.26
43161;BME280;40968;52.342;5.528;2022-11-23T02:24:30;99330.91;;;6.12;84.18
43161;BME280;40968;52.342;5.528;2022-11-23T02:27:01;99602.94;;;7.84;84.33
43161;BME280;40968;52.342;5.528;2022-11-23T02:29:28;99603.91;;;7.83;84.29
43161;BME280;40968;52.342;5.528;2022-11-23T02:31:54;99516.56;;;7.32;84.26
43161;BME280;40968;52.342;5.528;2022-11-23T02:34:21;99583.13;;;7.66;84.43
43161;BME280;40968;52.342;5.528;2022-11-23T02:36:49;99550.00;;;7.36;84.42
43161;BME280;40968;52.342;5.528;2022-11-23T02:39:20;99617.22;;;7.83;84.37
43161;BME280;40968;52.342;5.528;2022-11-23T02:41:49;99609.22;;;7.83;84.30
43161;BME280;40968;52.342;5.528;2022-11-23T02:44:25;99553.59;;;7.46;84.32
43161;BME280;40968;52.342;5.528;2022-11-23T02:46:54;99576.94;;;7.65;84.30
43161;BME280;40968;52.342;5.528;2022-11-23T02:49:20;99533.28;;;7.34;84.24
43161;BME280;40968;52.342;5.528;2022-11-23T02:51:47;99583.59;;;7.71;84.26
43161;BME280;40968;52.342;5.528;2022-11-23T02:54:14;99511.13;;;7.22;84.29
43161;BME280;40968;52.342;5.528;2022-11-23T02:56:41;99522.50;;;7.35;84.44
43161;BME280;40968;52.342;5.528;2022-11-23T02:59:07;99613.88;;;7.81;84.27
43161;BME280;40968;52.342;5.528;2022-11-23T03:01:36;99546.09;;;7.40;84.31
43161;BME280;40968;52.342;5.528;2022-11-23T03:04:04;99610.47;;;7.79;84.19
43161;BME280;40968;52.342;5.528;2022-11-23T03:06:30;99608.66;;;7.79;84.23
43161;BME280;40968;52.342;5.528;2022-11-23T03:08:57;99599.19;;;7.75;84.12
43161;BME280;40968;52.342;5.528;2022-11-23T03:11:24;99596.44;;;7.66;84.26
43161;BME280;40968;52.342;5.528;2022-11-23T03:13:50;99587.25;;;7.58;84.32
43161;BME280;40968;52.342;5.528;2022-11-23T03:16:17;99516.72;;;7.19;84.35
43161;BME280;40968;52.342;5.528;2022-11-23T03:18:45;99601.63;;;7.78;84.22
43161;BME280;40968;52.342;5.528;2022-11-23T03:21:11;99602.72;;;7.76;84.15
43161;BME280;40968;52.342;5.528;2022-11-23T03:23:38;99593.78;;;7.66;84.24
43161;BME280;40968;52.342;5.528;2022-11-23T03:26:04;99617.03;;;7.75;84.17
43161;BME280;40968;52.342;5.528;2022-11-23T03:28:31;99389.41;;;6.35;84.01
43161;BME280;40968;52.342;5.528;2022-11-23T03:30:58;99562.94;;;7.40;83.95
43161;BME280;40968;52.342;5.528;2022-11-23T03:33:24;99619.97;;;7.72;84.17
43161;BME280;40968;52.342;5.528;2022-11-23T03:35:52;99567.41;;;7.40;83.92
43161;BME280;40968;52.342;5.528;2022-11-23T03:38:19;99469.69;;;6.74;83.98
43161;BME280;40968;52.342;5.528;2022-11-23T03:40:45;99589.22;;;7.45;83.76
43161;BME280;40968;52.342;5.528;2022-11-23T03:43:13;99628.44;;;7.66;83.71
43161;BME280;40968;52.342;5.528;2022-11-23T03:45:40;99623.25;;;7.64;83.60
43161;BME280;40968;52.342;5.528;2022-11-23T03:48:07;99483.63;;;6.77;83.38
43161;BME280;40968;52.342;5.528;2022-11-23T03:50:34;99630.38;;;7.63;83.36
43161;BME280;40968;52.342;5.528;2022-11-23T03:53:02;99589.84;;;7.37;83.17
43161;BME280;40968;52.342;5.528;2022-11-23T03:55:28;99386.16;;;6.08;82.93
43161;BME280;40968;52.342;5.528;2022-11-23T03:57:55;99522.94;;;6.96;83.08
43161;BME280;40968;52.342;5.528;2022-11-23T04:00:23;99584.16;;;7.30;82.48
43161;BME280;40968;52.342;5.528;2022-11-23T04:02:50;99639.47;;;7.61;82.40
43161;BME280;40968;52.342;5.528;2022-11-23T04:05:17;99588.53;;;7.32;82.37
43161;BME280;40968;52.342;5.528;2022-11-23T04:07:45;99635.25;;;7.58;82.31
43161;BME280;40968;52.342;5.528;2022-11-23T04:10:14;99634.53;;;7.56;82.14
43161;BME280;40968;52.342;5.528;2022-11-23T04:12:40;99632.09;;;7.53;82.15
43161;BME280;40968;52.342;5.528;2022-11-23T04:15:07;99628.72;;;7.51;82.06
43161;BME280;40968;52.342;5.528;2022-11-23T04:17:34;99625.22;;;7.51;82.22
43161;BME280;40968;52.342;5.528;2022-11-23T04:20:01;99630.66;;;7.49;82.08
43161;BME280;40968;52.342;5.528;2022-11-23T04:22:27;99635.97;;;7.49;82.19
43161;BME280;40968;52.342;5.528;2022-11-23T04:24:54;99527.06;;;6.78;82.40
43161;BME280;40968;52.342;5.528;2022-11-23T04:27:22;99594.81;;;7.30;82.43
43161;BME280;40968;52.342;5.528;2022-11-23T04:29:48;99627.28;;;7.47;82.22
43161;BME280;40968;52.342;5.528;2022-11-23T04:32:15;99621.09;;;7.46;82.26
43161;BME280;40968;52.342;5.528;2022-11-23T04:34:41;99623.03;;;7.44;82.46
43161;BME280;40968;52.342;5.528;2022-11-23T04:37:08;99621.09;;;7.46;82.49
43161;BME280;40968;52.342;5.528;2022-11-23T04:39:34;99618.53;;;7.45;82.34
43161;BME280;40968;52.342;5.528;2022-11-23T04:42:01;99588.31;;;7.23;82.40
43161;BME280;40968;52.342;5.528;2022-11-23T04:44:29;99573.91;;;7.14;82.48
43161;BME280;40968;52.342;5.528;2022-11-23T04:46:56;99575.81;;;7.12;82.44
43161;BME280;40968;52.342;5.528;2022-11-23T04:49:22;99624.84;;;7.44;82.47
43161;BME280;40968;52.342;5.528;2022-11-23T04:51:49;99576.69;;;7.13;82.47
43161;BME280;40968;52.342;5.528;2022-11-23T04:54:16;99633.72;;;7.44;82.54
43161;BME280;40968;52.342;5.528;2022-11-23T04:56:42;99634.53;;;7.45;82.54
43161;BME280;40968;52.342;5.528;2022-11-23T04:59:09;99562.63;;;7.11;82.48
43161;BME280;40968;52.342;5.528;2022-11-23T05:01:37;99547.63;;;6.99;82.40
43161;BME280;40968;52.342;5.528;2022-11-23T05:04:03;99548.13;;;6.92;82.50
43161;BME280;40968;52.342;5.528;2022-11-23T05:06:30;99603.91;;;7.28;82.36
43161;BME280;40968;52.342;5.528;2022-11-23T05:08:57;99627.28;;;7.47;82.40
43161;BME280;40968;52.342;5.528;2022-11-23T05:11:23;99614.31;;;7.42;82.51
43161;BME280;40968;52.342;5.528;2022-11-23T05:13:51;99537.47;;;6.92;82.19
43161;BME280;40968;52.342;5.528;2022-11-23T05:16:17;99628.97;;;7.48;82.34
43161;BME280;40968;52.342;5.528;2022-11-23T05:18:45;99597.00;;;7.25;82.19
43161;BME280;40968;52.342;5.528;2022-11-23T05:21:12;99604.75;;;7.40;82.42
43161;BME280;40968;52.342;5.528;2022-11-23T05:23:39;99626.75;;;7.53;82.18
43161;BME280;40968;52.342;5.528;2022-11-23T05:26:05;99614.19;;;7.44;82.18
43161;BME280;40968;52.342;5.528;2022-11-23T05:28:32;99562.88;;;7.19;82.12
43161;BME280;40968;52.342;5.528;2022-11-23T05:30:58;99592.16;;;7.42;81.97
43161;BME280;40968;52.342;5.528;2022-11-23T05:33:25;99627.97;;;7.60;82.13
43161;BME280;40968;52.342;5.528;2022-11-23T05:35:53;99626.16;;;7.61;81.95
43161;BME280;40968;52.342;5.528;2022-11-23T05:38:19;99585.59;;;7.35;81.87
43161;BME280;40968;52.342;5.528;2022-11-23T05:40:46;99576.16;;;7.30;81.82
43161;BME280;40968;52.342;5.528;2022-11-23T05:43:12;99385.75;;;6.13;81.50
43161;BME280;40968;52.342;5.528;2022-11-23T05:45:39;99562.28;;;7.16;81.74
43161;BME280;40968;52.342;5.528;2022-11-23T05:48:06;99630.28;;;7.54;81.75
43161;BME280;40968;52.342;5.528;2022-11-23T05:50:32;99628.00;;;7.49;81.73
43161;BME280;40968;52.342;5.528;2022-11-23T05:53:00;99543.75;;;6.91;81.60
43161;BME280;40968;52.342;5.528;2022-11-23T05:55:27;99634.53;;;7.45;81.80
43161;BME280;40968;52.342;5.528;2022-11-23T05:57:53;99616.63;;;7.36;81.81
43161;BME280;40968;52.342;5.528;2022-11-23T06:00:20;99529.47;;;6.81;81.80
43161;BME280;40968;52.342;5.528;2022-11-23T06:02:47;99578.13;;;7.06;81.95
43161;BME280;40968;52.342;5.528;2022-11-23T06:05:14;99638.16;;;7.44;81.92
43161;BME280;40968;52.342;5.528;2022-11-23T06:07:40;99603.31;;;7.24;81.90
43161;BME280;40968;52.342;5.528;2022-11-23T06:10:11;99605.03;;;7.14;82.00
43161;BME280;40968;52.342;5.528;2022-11-23T06:12:37;99457.13;;;6.30;81.93
43161;BME280;40968;52.342;5.528;2022-11-23T06:15:05;99649.69;;;7.44;82.03
43161;BME280;40968;52.342;5.528;2022-11-23T06:17:32;99649.56;;;7.46;81.92
43161;BME280;40968;52.342;5.528;2022-11-23T06:19:58;99366.41;;;5.77;81.68
43161;BME280;40968;52.342;5.528;2022-11-23T06:22:25;99647.75;;;7.46;81.91
43161;BME280;40968;52.342;5.528;2022-11-23T06:24:51;99645.81;;;7.49;81.94
43161;BME280;40968;52.342;5.528;2022-11-23T06:27:19;99487.38;;;6.52;81.98
43161;BME280;40968;52.342;5.528;2022-11-23T06:29:46;99615.44;;;7.28;81.92
43161;BME280;40968;52.342;5.528;2022-11-23T06:32:13;99637.81;;;7.49;81.88
43161;BME280;40968;52.342;5.528;2022-11-23T06:34:39;99594.13;;;7.17;81.88
43161;BME280;40968;52.342;5.528;2022-11-23T06:37:06;99607.66;;;7.25;81.74
43161;BME280;40968;52.342;5.528;2022-11-23T06:39:33;99614.22;;;7.33;81.53
43161;BME280;40968;52.342;5.528;2022-11-23T06:41:59;99607.94;;;7.22;81.55
43161;BME280;40968;52.342;5.528;2022-11-23T06:44:27;99612.78;;;7.28;81.38
43161;BME280;40968;52.342;5.528;2022-11-23T06:46:54;99598.47;;;7.18;81.39
43161;BME280;40968;52.342;5.528;2022-11-23T06:49:21;99656.47;;;7.49;81.29
43161;BME280;40968;52.342;5.528;2022-11-23T06:51:47;99651.97;;;7.49;81.23
43161;BME280;40968;52.342;5.528;2022-11-23T06:54:14;99649.56;;;7.46;81.02
43161;BME280;40968;52.342;5.528;2022-11-23T06:56:40;99656.59;;;7.47;81.19
43161;BME280;40968;52.342;5.528;2022-11-23T06:59:07;99567.72;;;6.91;81.09
43161;BME280;40968;52.342;5.528;2022-11-23T07:01:35;99668.84;;;7.50;80.94
43161;BME280;40968;52.342;5.528;2022-11-23T07:04:02;99658.19;;;7.50;80.65
43161;BME280;40968;52.342;5.528;2022-11-23T07:06:28;99674.19;;;7.50;80.77
43161;BME280;40968;52.342;5.528;2022-11-23T07:08:55;99667.41;;;7.45;80.50
43161;BME280;40968;52.342;5.528;2022-11-23T07:11:21;99614.47;;;7.07;80.50
43161;BME280;40968;52.342;5.528;2022-11-23T07:13:48;99672.59;;;7.47;80.68
43161;BME280;40968;52.342;5.528;2022-11-23T07:16:15;99681.44;;;7.47;80.43
43161;BME280;40968;52.342;5.528;2022-11-23T07:18:43;99545.22;;;6.61;80.39
43161;BME280;40968;52.342;5.528;2022-11-23T07:21:09;99675.50;;;7.44;80.41
43161;BME280;40968;52.342;5.528;2022-11-23T07:23:36;99618.34;;;7.03;80.28
43161;BME280;40968;52.342;5.528;2022-11-23T07:26:05;99615.81;;;7.01;80.02
43161;BME280;40968;52.342;5.528;2022-11-23T07:28:32;99600.91;;;6.87;80.10
43161;BME280;40968;52.342;5.528;2022-11-23T07:30:58;99612.88;;;6.93;79.82
43161;BME280;40968;52.342;5.528;2022-11-23T07:33:25;99697.34;;;7.38;79.82
43161;BME280;40968;52.342;5.528;2022-11-23T07:35:53;99699.38;;;7.34;79.89
43161;BME280;40968;52.342;5.528;2022-11-23T07:38:20;99713.78;;;7.32;79.92
43161;BME280;40968;52.342;5.528;2022-11-23T07:40:48;99703.97;;;7.32;80.03
43161;BME280;40968;52.342;5.528;2022-11-23T07:43:15;99715.97;;;7.26;79.94
43161;BME280;40968;52.342;5.528;2022-11-23T07:45:42;99711.88;;;7.34;79.96
43161;BME280;40968;52.342;5.528;2022-11-23T07:48:09;99657.56;;;7.01;80.10
43161;BME280;40968;52.342;5.528;2022-11-23T07:50:37;99689.44;;;7.13;80.03
43161;BME280;40968;52.342;5.528;2022-11-23T07:53:06;99699.88;;;7.17;80.21
43161;BME280;40968;52.342;5.528;2022-11-23T07:55:33;99468.13;;;5.79;79.86
43161;BME280;40968;52.342;5.528;2022-11-23T07:58:00;99484.97;;;5.79;79.99
43161;BME280;40968;52.342;5.528;2022-11-23T08:00:27;99745.53;;;7.35;80.18
43161;BME280;40968;52.342;5.528;2022-11-23T08:02:56;99741.91;;;7.36;80.31
43161;BME280;40968;52.342;5.528;2022-11-23T08:05:23;99718.16;;;7.21;80.17
43161;BME280;40968;52.342;5.528;2022-11-23T08:07:50;99727.59;;;7.25;80.28
43161;BME280;40968;52.342;5.528;2022-11-23T08:10:18;99481.53;;;5.66;80.01
43161;BME280;40968;52.342;5.528;2022-11-23T08:12:45;99545.16;;;6.16;80.08
43161;BME280;40968;52.342;5.528;2022-11-23T08:15:12;99691.13;;;7.03;80.15
43161;BME280;40968;52.342;5.528;2022-11-23T08:17:38;99568.66;;;6.34;79.95
43161;BME280;40968;52.342;5.528;2022-11-23T08:20:06;99496.81;;;5.87;79.90
43161;BME280;40968;52.342;5.528;2022-11-23T08:22:32;99748.81;;;7.38;79.87
43161;BME280;40968;52.342;5.528;2022-11-23T08:24:59;99744.31;;;7.39;79.97
43161;BME280;40968;52.342;5.528;2022-11-23T08:27:27;99738.88;;;7.40;79.94
43161;BME280;40968;52.342;5.528;2022-11-23T08:29:54;99718.88;;;7.23;80.21
43161;BME280;40968;52.342;5.528;2022-11-23T08:32:20;99745.81;;;7.43;80.20
43161;BME280;40968;52.342;5.528;2022-11-23T08:34:47;99750.13;;;7.44;80.06
43161;BME280;40968;52.342;5.528;2022-11-23T08:37:14;99737.56;;;7.46;80.21
43161;BME280;40968;52.342;5.528;2022-11-23T08:39:40;99758.63;;;7.49;80.00
43161;BME280;40968;52.342;5.528;2022-11-23T08:42:07;99685.34;;;7.21;80.03
43161;BME280;40968;52.342;5.528;2022-11-23T08:44:35;99714.03;;;7.40;79.88
43161;BME280;40968;52.342;5.528;2022-11-23T08:47:01;99743.97;;;7.55;79.92
43161;BME280;40968;52.342;5.528;2022-11-23T08:49:28;99734.25;;;7.42;79.79
43161;BME280;40968;52.342;5.528;2022-11-23T08:51:54;99587.59;;;6.64;79.76
43161;BME280;40968;52.342;5.528;2022-11-23T08:54:21;99742.75;;;7.59;79.50
43161;BME280;40968;52.342;5.528;2022-11-23T08:56:48;99686.41;;;7.29;79.65
43161;BME280;40968;52.342;5.528;2022-11-23T08:59:15;99686.53;;;7.28;79.42
43161;BME280;40968;52.342;5.528;2022-11-23T09:01:44;99678.31;;;7.20;79.11
43161;BME280;40968;52.342;5.528;2022-11-23T09:04:11;99451.00;;;5.83;79.21
43161;BME280;40968;52.342;5.528;2022-11-23T09:06:37;99638.22;;;6.99;79.38
43161;BME280;40968;52.342;5.528;2022-11-23T09:09:04;99696.34;;;7.27;79.67
43161;BME280;40968;52.342;5.528;2022-11-23T09:11:31;99485.28;;;5.99;80.13
43161;BME280;40968;52.342;5.528;2022-11-23T09:13:57;99704.84;;;7.33;80.42
43161;BME280;40968;52.342;5.528;2022-11-23T09:16:24;99725.06;;;7.46;80.64
43161;BME280;40968;52.342;5.528;2022-11-23T09:18:55;99562.16;;;6.49;80.52
43161;BME280;40968;52.342;5.528;2022-11-23T09:21:22;99669.69;;;7.16;80.83
43161;BME280;40968;52.342;5.528;2022-11-23T09:23:53;99704.34;;;7.39;80.77
43161;BME280;40968;52.342;5.528;2022-11-23T09:26:20;99592.19;;;6.74;80.73
43161;BME280;40968;52.342;5.528;2022-11-23T09:28:47;99699.50;;;7.44;80.93
43161;BME280;40968;52.342;5.528;2022-11-23T09:31:13;99699.00;;;7.50;80.75
43161;BME280;40968;52.342;5.528;2022-11-23T09:33:40;99730.00;;;7.74;80.58
43161;BME280;40968;52.342;5.528;2022-11-23T09:36:08;99680.00;;;7.43;80.61
43161;BME280;40968;52.342;5.528;2022-11-23T09:38:35;99673.81;;;7.43;79.81
43161;BME280;40968;52.342;5.528;2022-11-23T09:41:13;99725.63;;;7.84;79.97
43161;BME280;40968;52.342;5.528;2022-11-23T09:43:51;99720.56;;;7.70;79.70
43161;BME280;40968;52.342;5.528;2022-11-23T09:46:26;99656.97;;;7.42;79.49
43161;BME280;40968;52.342;5.528;2022-11-23T09:49:09;99729.13;;;7.96;78.88
43161;BME280;40968;52.342;5.528;2022-11-23T09:51:39;99506.97;;;6.74;78.39
43161;BME280;40968;52.342;5.528;2022-11-23T09:54:14;99601.84;;;7.32;78.34
43161;BME280;40968;52.342;5.528;2022-11-23T09:56:45;99313.22;;;5.65;77.78
43161;BME280;40968;52.342;5.528;2022-11-23T09:59:21;99709.06;;;8.13;77.80
43161;BME280;40968;52.342;5.528;2022-11-23T10:01:51;99707.97;;;8.16;76.50
43161;BME280;40968;52.342;5.528;2022-11-23T10:04:18;99573.50;;;7.30;76.78
43161;BME280;40968;52.342;5.528;2022-11-23T10:06:50;99641.72;;;7.88;76.36
43161;BME280;40968;52.342;5.528;2022-11-23T10:09:27;99607.31;;;7.74;75.71
43161;BME280;40968;52.342;5.528;2022-11-23T10:12:12;99693.25;;;8.33;75.43
43161;BME280;40968;52.342;5.528;2022-11-23T10:15:09;99681.13;;;8.28;75.60
43161;BME280;40968;52.342;5.528;2022-11-23T10:17:56;99691.38;;;8.44;75.54
43161;BME280;40968;52.342;5.528;2022-11-23T10:20:58;99463.06;;;7.23;74.50
43161;BME280;40968;52.342;5.528;2022-11-23T10:23:53;99539.41;;;7.78;73.91
43161;BME280;40968;52.342;5.528;2022-11-23T10:26:25;99614.13;;;8.32;73.42
43161;BME280;40968;52.342;5.528;2022-11-23T10:28:55;99647.31;;;8.71;73.18
43161;BME280;40968;52.342;5.528;2022-11-23T10:31:23;99642.81;;;8.72;73.02
43161;BME280;40968;52.342;5.528;2022-11-23T10:33:59;99630.63;;;8.79;71.79
43161;BME280;40968;52.342;5.528;2022-11-23T10:36:29;99661.09;;;8.98;70.79
43161;BME280;40968;52.342;5.528;2022-11-23T10:38:58;99666.63;;;9.06;70.09
43161;BME280;40968;52.342;5.528;2022-11-23T10:41:28;99654.69;;;9.10;68.62
43161;BME280;40968;52.342;5.528;2022-11-23T10:44:03;99637.81;;;9.09;68.13
43161;BME280;40968;52.342;5.528;2022-11-23T10:46:36;99652.47;;;9.15;68.43
43161;BME280;40968;52.342;5.528;2022-11-23T10:49:15;99577.22;;;8.79;67.85
43161;BME280;40968;52.342;5.528;2022-11-23T10:51:50;99605.44;;;9.03;68.56
43161;BME280;40968;52.342;5.528;2022-11-23T10:54:22;99481.97;;;8.37;68.17
43161;BME280;40968;52.342;5.528;2022-11-23T10:56:52;99514.00;;;8.58;67.86
43161;BME280;40968;52.342;5.528;2022-11-23T10:59:31;99664.13;;;9.55;67.89
43161;BME280;40968;52.342;5.528;2022-11-23T11:01:59;99648.66;;;9.58;67.18
43161;BME280;40968;52.342;5.528;2022-11-23T11:04:27;99528.25;;;8.78;67.17
43161;BME280;40968;52.342;5.528;2022-11-23T11:07:09;99618.50;;;9.46;67.71
43161;BME280;40968;52.342;5.528;2022-11-23T11:09:38;99509.69;;;8.77;66.99
43161;BME280;40968;52.342;5.528;2022-11-23T11:12:04;99526.09;;;8.93;66.97
43161;BME280;40968;52.342;5.528;2022-11-23T11:14:34;99639.69;;;9.69;66.97
43161;BME280;40968;52.342;5.528;2022-11-23T11:17:01;99652.94;;;9.71;65.93
43161;BME280;40968;52.342;5.528;2022-11-23T11:19:29;99617.09;;;9.52;65.93
43161;BME280;40968;52.342;5.528;2022-11-23T11:21:58;99337.09;;;7.94;66.03
43161;BME280;40968;52.342;5.528;2022-11-23T11:24:29;99559.09;;;9.43;66.08
43161;BME280;40968;52.342;5.528;2022-11-23T11:27:00;99622.09;;;9.86;65.24
43161;BME280;40968;52.342;5.528;2022-11-23T11:29:30;99518.53;;;9.18;64.85
43161;BME280;40968;52.342;5.528;2022-11-23T11:32:01;99613.53;;;9.92;65.05
43161;BME280;40968;52.342;5.528;2022-11-23T11:34:34;99641.72;;;10.16;63.93
43161;BME280;40968;52.342;5.528;2022-11-23T11:37:09;99608.47;;;9.89;64.55
43161;BME280;40968;52.342;5.528;2022-11-23T11:39:41;99600.56;;;9.78;64.29
43161;BME280;40968;52.342;5.528;2022-11-23T11:42:17;99614.34;;;9.83;63.60
43161;BME280;40968;52.342;5.528;2022-11-23T11:44:45;99643.00;;;10.02;64.35
43161;BME280;40968;52.342;5.528;2022-11-23T11:47:26;99617.03;;;9.83;64.47
43161;BME280;40968;52.342;5.528;2022-11-23T11:49:57;99607.28;;;9.53;65.12
43161;BME280;40968;52.342;5.528;2022-11-23T11:52:27;99656.19;;;9.84;64.61
43161;BME280;40968;52.342;5.528;2022-11-23T11:55:00;99652.38;;;9.77;64.51
43161;BME280;40968;52.342;5.528;2022-11-23T11:57:32;99645.06;;;9.79;64.98
43161;BME280;40968;52.342;5.528;2022-11-23T12:00:06;99652.13;;;9.80;64.87
43161;BME280;40968;52.342;5.528;2022-11-23T12:02:39;99463.59;;;8.85;65.00
43161;BME280;40968;52.342;5.528;2022-11-23T12:05:12;99613.81;;;9.89;64.83
43161;BME280;40968;52.342;5.528;2022-11-23T12:07:45;99594.34;;;9.87;63.63
43161;BME280;40968;52.342;5.528;2022-11-23T12:10:17;99612.41;;;9.85;63.90
43161;BME280;40968;52.342;5.528;2022-11-23T12:12:47;99571.25;;;9.76;63.87
43161;BME280;40968;52.342;5.528;2022-11-23T12:15:17;99591.25;;;9.82;64.05
43161;BME280;40968;52.342;5.528;2022-11-23T12:18:07;99619.31;;;9.98;64.28
43161;BME280;40968;52.342;5.528;2022-11-23T12:20:43;99594.38;;;9.77;64.71
43161;BME280;40968;52.342;5.528;2022-11-23T12:23:22;99562.25;;;9.68;64.76
43161;BME280;40968;52.342;5.528;2022-11-23T12:26:02;99466.31;;;9.04;64.11
43161;BME280;40968;52.342;5.528;2022-11-23T12:28:49;99573.78;;;9.58;64.50
43161;BME280;40968;52.342;5.528;2022-11-23T12:31:26;99594.09;;;9.71;64.70
43161;BME280;40968;52.342;5.528;2022-11-23T12:34:11;99580.28;;;9.66;64.73
43161;BME280;40968;52.342;5.528;2022-11-23T12:36:48;99508.41;;;9.12;64.20
43161;BME280;40968;52.342;5.528;2022-11-23T12:39:33;99591.81;;;9.56;64.36
43161;BME280;40968;52.342;5.528;2022-11-23T12:42:11;99413.09;;;8.41;64.46
43161;BME280;40968;52.342;5.528;2022-11-23T12:44:50;99517.94;;;9.05;65.08
43161;BME280;40968;52.342;5.528;2022-11-23T12:47:28;99552.88;;;9.33;65.18
43161;BME280;40968;52.342;5.528;2022-11-23T12:50:04;99586.28;;;9.48;65.48
43161;BME280;40968;52.342;5.528;2022-11-23T12:52:43;99528.38;;;9.18;65.17
43161;BME280;40968;52.342;5.528;2022-11-23T12:55:21;99428.09;;;8.63;65.47
43161;BME280;40968;52.342;5.528;2022-11-23T12:57:55;99436.97;;;8.63;64.94
43161;BME280;40968;52.342;5.528;2022-11-23T13:00:30;99481.88;;;8.89;65.29
43161;BME280;40968;52.342;5.528;2022-11-23T13:03:38;99514.16;;;9.07;65.27
43161;BME280;40968;52.342;5.528;2022-11-23T13:06:29;99497.97;;;8.99;65.15
43161;BME280;40968;52.342;5.528;2022-11-23T13:09:21;99446.72;;;8.84;65.43
43161;BME280;40968;52.342;5.528;2022-11-23T13:12:04;99472.34;;;8.96;65.29
43161;BME280;40968;52.342;5.528;2022-11-23T13:14:39;99456.03;;;9.00;65.37
43161;BME280;40968;52.342;5.528;2022-11-23T13:17:25;99558.88;;;9.66;64.54
43161;BME280;40968;52.342;5.528;2022-11-23T13:20:10;99487.31;;;9.28;64.28
43161;BME280;40968;52.342;5.528;2022-11-23T13:22:40;99564.47;;;9.62;64.51